Deroche, Canada
Current Conditions -  °F | °C
As of 9:00 AM on Monday 22 Dec 2014 (Local Time) from CYXX Reporting Station
Broken Clouds Broken Clouds  
Wind Chill: 35°   Ceiling: 22000
Heat Index: 39°   Visibility: 20mi
Dew Point: 36°   Wind: 6mph
Humidity: 87%   Direction: 220°SW
Pressure: 30.32"   Gusts: NA
Location:  49.19°N, 122.07°W
Report Text: CYXX 221700Z 22005KT 20SM FEW040 SCT140 BKN220 04/02 A3032 RMK SC1AC3CC3 SC TR SLP269
Loading
Personal Weather Stations






























Interactive Weather Map New forecast layout! Learn more

10-Day Weather Forecast

Advertisements
Track Severe Weather on mobile